createdAt,value
2022-10-23T00:00:37.217Z,101338.91
2022-10-23T00:03:04.007Z,101338.25
2022-10-23T00:05:30.458Z,101333.13
2022-10-23T00:07:58.777Z,101343.91
2022-10-23T00:10:25.848Z,101339.47
2022-10-23T00:12:52.299Z,101346.63
2022-10-23T00:15:19.856Z,101350.25
2022-10-23T00:17:46.242Z,101347.63
2022-10-23T00:20:12.927Z,101342.31
2022-10-23T00:22:39.328Z,101350.34
2022-10-23T00:25:06.589Z,101356.66
2022-10-23T00:27:33.045Z,101353.13
2022-10-23T00:29:59.415Z,101350.50
2022-10-23T00:32:25.919Z,101354.97
2022-10-23T00:34:52.406Z,101355.91
2022-10-23T00:37:18.915Z,101353.28
2022-10-23T00:39:45.313Z,101352.38
2022-10-23T00:42:17.003Z,101347.00
2022-10-23T00:44:43.245Z,101342.47
2022-10-23T00:47:09.875Z,101350.50
2022-10-23T00:49:38.386Z,101348.66
2022-10-23T00:52:07.112Z,101345.25
2022-10-23T00:54:36.154Z,101348.03
2022-10-23T00:57:04.322Z,101348.16
2022-10-23T00:59:30.813Z,101342.94
2022-10-23T01:01:57.429Z,101345.72
2022-10-23T01:04:24.179Z,101351.19
2022-10-23T01:07:16.147Z,101348.56
2022-10-23T01:10:37.055Z,101345.94
2022-10-23T01:13:24.203Z,101347.91
2022-10-23T01:15:57.897Z,101338.88
2022-10-23T01:18:45.429Z,101337.97
2022-10-23T01:21:22.436Z,101345.16
2022-10-23T01:24:02.859Z,101330.16
2022-10-23T01:26:38.181Z,101343.56
2022-10-23T01:29:17.599Z,101340.09
2022-10-23T01:31:46.589Z,101337.38
2022-10-23T01:34:21.562Z,101336.44
2022-10-23T01:36:48.692Z,101337.28
2022-10-23T01:39:17.741Z,101336.31
2022-10-23T01:41:46.445Z,101329.19
2022-10-23T01:44:24.868Z,101325.63
2022-10-23T01:46:51.259Z,101328.38
2022-10-23T01:49:17.705Z,101328.41
2022-10-23T01:51:51.003Z,101332.03
2022-10-23T01:54:17.409Z,101331.28
2022-10-23T01:56:45.321Z,101326.88
2022-10-23T01:59:17.313Z,101319.84
2022-10-23T02:01:45.290Z,101324.31
2022-10-23T02:04:13.230Z,101316.56
2022-10-23T02:06:39.633Z,101326.22
2022-10-23T02:09:06.108Z,101325.28
2022-10-23T02:11:32.492Z,101324.41
2022-10-23T02:14:10.903Z,101326.13
2022-10-23T02:16:44.903Z,101318.97
2022-10-23T02:19:17.254Z,101315.47
2022-10-23T02:22:05.892Z,101309.34
2022-10-23T02:24:38.918Z,101312.94
2022-10-23T02:27:11.843Z,101316.50
2022-10-23T02:29:44.700Z,101309.41
2022-10-23T02:32:11.091Z,101317.50
2022-10-23T02:34:37.485Z,101325.63
2022-10-23T02:37:04.098Z,101321.22
2022-10-23T02:39:30.471Z,101315.06
2022-10-23T02:42:06.343Z,101310.69
2022-10-23T02:44:53.919Z,101306.41
2022-10-23T02:47:23.293Z,101324.25
2022-10-23T02:50:04.803Z,101319.00
2022-10-23T02:52:34.098Z,101326.25
2022-10-23T02:55:09.590Z,101322.81
2022-10-23T02:57:40.278Z,101317.56
2022-10-23T03:00:19.929Z,101313.03
2022-10-23T03:03:00.486Z,101319.25
2022-10-23T03:05:30.356Z,101324.72
2022-10-23T03:07:56.778Z,101309.66
2022-10-23T03:10:23.258Z,101302.59
2022-10-23T03:12:50.246Z,101306.19
2022-10-23T03:15:16.796Z,101304.50
2022-10-23T03:17:43.416Z,101294.81
2022-10-23T03:20:10.254Z,101304.56
2022-10-23T03:22:36.623Z,101306.41
2022-10-23T03:25:03.227Z,101310.97
2022-10-23T03:29:55.944Z,101304.78
2022-10-23T03:32:22.315Z,101310.19
2022-10-23T03:34:48.718Z,101305.84
2022-10-23T03:37:15.149Z,101298.81
2022-10-23T03:39:41.916Z,101299.75
2022-10-23T03:42:08.288Z,101302.41
2022-10-23T03:44:34.659Z,101300.72
2022-10-23T03:47:01.066Z,101297.28
2022-10-23T03:49:27.427Z,101299.09
2022-10-23T03:51:53.833Z,101300.00
2022-10-23T03:54:21.880Z,101301.88
2022-10-23T03:56:50.496Z,101302.75
2022-10-23T03:59:17.757Z,101298.34
2022-10-23T04:01:44.268Z,101298.38
2022-10-23T04:04:11.382Z,101301.03
2022-10-23T04:06:37.810Z,101302.06
2022-10-23T04:09:04.682Z,101293.19
2022-10-23T04:11:31.174Z,101304.75
2022-10-23T04:13:57.548Z,101304.81
2022-10-23T04:16:24.164Z,101293.31
2022-10-23T04:18:50.806Z,101304.88
2022-10-23T04:21:17.248Z,101295.16
2022-10-23T04:23:44.026Z,101302.38
2022-10-23T04:26:10.453Z,101297.16
2022-10-23T04:28:36.865Z,101289.19
2022-10-23T04:31:03.288Z,101289.13
2022-10-23T04:33:29.695Z,101281.94
2022-10-23T04:35:56.319Z,101280.25
2022-10-23T04:38:22.782Z,101269.72
2022-10-23T04:40:49.215Z,101264.38
2022-10-23T04:43:15.608Z,101273.28
2022-10-23T04:45:42.010Z,101272.47
2022-10-23T04:48:08.395Z,101272.50
2022-10-23T04:50:34.800Z,101272.53
2022-10-23T04:53:01.271Z,101276.13
2022-10-23T04:55:27.673Z,101272.63
2022-10-23T04:57:54.125Z,101271.75
2022-10-23T05:00:20.660Z,101273.59
2022-10-23T05:02:47.082Z,101278.06
2022-10-23T05:05:13.467Z,101270.09
2022-10-23T05:07:39.910Z,101273.66
2022-10-23T05:10:06.686Z,101271.00
2022-10-23T05:12:33.085Z,101271.94
2022-10-23T05:14:59.464Z,101264.88
2022-10-23T05:17:28.513Z,101271.09
2022-10-23T05:19:55.467Z,101266.69
2022-10-23T05:22:22.706Z,101261.41
2022-10-23T05:24:50.591Z,101259.63
2022-10-23T05:27:17.310Z,101259.63
2022-10-23T05:29:43.684Z,101262.28
2022-10-23T05:32:10.347Z,101262.34
2022-10-23T05:34:36.780Z,101265.88
2022-10-23T05:37:03.550Z,101266.78
2022-10-23T05:39:30.000Z,101257.00
2022-10-23T05:41:56.408Z,101254.38
2022-10-23T05:44:22.842Z,101247.28
2022-10-23T05:46:49.212Z,101244.63
2022-10-23T05:49:15.592Z,101247.28
2022-10-23T05:51:41.973Z,101257.03
2022-10-23T05:54:08.445Z,101260.59
2022-10-23T05:56:35.792Z,101270.34
2022-10-23T05:59:02.226Z,101273.88
2022-10-23T06:01:28.811Z,101266.69
2022-10-23T06:03:55.288Z,101266.69
2022-10-23T06:06:21.665Z,101265.78
2022-10-23T06:08:48.042Z,101259.53
2022-10-23T06:11:14.854Z,101265.75
2022-10-23T06:13:44.871Z,101274.59
2022-10-23T06:16:19.445Z,101263.91
2022-10-23T06:18:46.069Z,101270.09
2022-10-23T06:21:12.733Z,101276.19
2022-10-23T06:23:39.582Z,101274.38
2022-10-23T06:26:06.425Z,101269.94
2022-10-23T06:28:32.837Z,101269.03
2022-10-23T06:30:59.204Z,101269.94
2022-10-23T06:33:25.608Z,101261.88
2022-10-23T06:35:51.984Z,101266.19
2022-10-23T06:38:18.394Z,101259.91
2022-10-23T06:40:44.768Z,101267.84
2022-10-23T06:43:11.248Z,101262.44
2022-10-23T06:45:40.464Z,101260.59
2022-10-23T06:48:06.892Z,101260.59
2022-10-23T06:50:33.283Z,101257.97
2022-10-23T06:52:59.906Z,101253.47
2022-10-23T06:55:26.407Z,101258.69
2022-10-23T06:57:53.484Z,101247.97
2022-10-23T07:00:21.756Z,101244.38
2022-10-23T07:02:48.135Z,101250.56
2022-10-23T07:05:14.541Z,101254.19
2022-10-23T07:07:40.911Z,101246.13
2022-10-23T07:10:07.707Z,101240.78
2022-10-23T07:12:34.124Z,101243.28
2022-10-23T07:15:00.540Z,101244.91
2022-10-23T07:17:28.614Z,101246.56
2022-10-23T07:19:55.022Z,101255.34
2022-10-23T07:22:21.403Z,101256.16
2022-10-23T07:24:47.787Z,101265.88
2022-10-23T07:27:14.180Z,101273.69
2022-10-23T07:29:40.563Z,101262.16
2022-10-23T07:32:06.956Z,101274.59
2022-10-23T07:34:33.332Z,101270.13
2022-10-23T07:36:59.706Z,101269.03
2022-10-23T07:39:26.125Z,101270.66
2022-10-23T07:41:52.494Z,101267.75
2022-10-23T07:44:20.205Z,101272.00
2022-10-23T07:46:48.433Z,101268.19
2022-10-23T07:49:14.855Z,101261.72
2022-10-23T07:51:41.323Z,101265.03
2022-10-23T07:54:09.145Z,101271.94
2022-10-23T07:56:35.531Z,101270.75
2022-10-23T07:59:01.959Z,101274.03
2022-10-23T08:01:32.243Z,101251.50
2022-10-23T08:03:59.153Z,101249.53
2022-10-23T08:06:25.557Z,101246.69
2022-10-23T08:08:53.389Z,101244.66
2022-10-23T08:11:21.657Z,101248.97
2022-10-23T08:13:48.084Z,101246.00
2022-10-23T08:16:14.456Z,101246.63
2022-10-23T08:18:40.940Z,101248.09
2022-10-23T08:21:07.310Z,101238.84
2022-10-23T08:23:33.687Z,101246.47
2022-10-23T08:26:00.958Z,101247.88
2022-10-23T08:28:27.990Z,101242.44
2022-10-23T08:30:54.627Z,101240.50
2022-10-23T08:33:21.413Z,101237.81
2022-10-23T08:35:47.818Z,101233.28
2022-10-23T08:38:14.189Z,101233.16
2022-10-23T08:40:47.110Z,101237.47
2022-10-23T08:43:32.300Z,101232.97
2022-10-23T08:46:01.291Z,101234.59
2022-10-23T08:48:47.687Z,101231.00
2022-10-23T08:51:18.041Z,101226.38
2022-10-23T08:53:54.564Z,101229.78
2022-10-23T08:56:23.165Z,101229.69
2022-10-23T08:59:20.342Z,101219.84
2022-10-23T09:01:47.811Z,101224.34
2022-10-23T09:04:14.506Z,101223.47
2022-10-23T09:06:59.039Z,101210.88
2022-10-23T09:10:10.534Z,101210.66
2022-10-23T09:12:39.800Z,101207.94
2022-10-23T09:15:17.768Z,101206.88
2022-10-23T09:17:44.500Z,101207.59
2022-10-23T09:20:17.131Z,101202.97
2022-10-23T09:22:43.852Z,101206.22
2022-10-23T09:25:11.354Z,101204.19
2022-10-23T09:27:37.926Z,101206.50
2022-10-23T09:30:06.520Z,101207.16
2022-10-23T09:32:38.947Z,101216.72
2022-10-23T09:35:06.171Z,101223.53
2022-10-23T09:37:33.245Z,101221.56
2022-10-23T09:40:03.768Z,101212.44
2022-10-23T09:42:30.144Z,101211.47
2022-10-23T09:44:56.537Z,101208.78
2022-10-23T09:47:24.423Z,101215.91
2022-10-23T09:49:52.359Z,101210.47
2022-10-23T09:52:18.620Z,101221.09
2022-10-23T09:54:49.295Z,101222.59
2022-10-23T09:57:23.310Z,101213.50
2022-10-23T09:59:54.498Z,101216.88
2022-10-23T10:02:28.848Z,101213.16
2022-10-23T10:04:55.245Z,101216.63
2022-10-23T10:07:31.153Z,101206.59
2022-10-23T10:09:59.895Z,101200.16
2022-10-23T10:12:35.321Z,101195.41
2022-10-23T10:15:01.628Z,101198.72
2022-10-23T10:17:55.546Z,101197.72
2022-10-23T10:20:45.030Z,101188.56
2022-10-23T10:23:23.781Z,101182.91
2022-10-23T10:26:08.406Z,101182.69
2022-10-23T10:28:41.036Z,101182.69
2022-10-23T10:31:13.639Z,101173.66
2022-10-23T10:33:55.061Z,101164.66
2022-10-23T10:36:30.549Z,101160.91
2022-10-23T10:39:00.702Z,101153.69
2022-10-23T10:41:42.815Z,101139.06
2022-10-23T10:44:12.919Z,101130.75
2022-10-23T10:46:42.172Z,101139.59
2022-10-23T10:49:18.039Z,101143.03
2022-10-23T10:51:54.676Z,101136.66
2022-10-23T10:54:30.710Z,101134.72
2022-10-23T10:56:57.116Z,101137.13
2022-10-23T10:59:24.735Z,101141.34
2022-10-23T11:02:20.751Z,101135.84
2022-10-23T11:04:47.089Z,101133.97
2022-10-23T11:07:15.293Z,101123.94
2022-10-23T11:09:42.118Z,101114.84
2022-10-23T11:12:15.869Z,101115.94
2022-10-23T11:14:42.305Z,101114.94
2022-10-23T11:17:18.610Z,101106.78
2022-10-23T11:19:55.656Z,101107.53
2022-10-23T11:22:27.919Z,101104.56
2022-10-23T11:25:16.879Z,101113.09
2022-10-23T11:27:56.545Z,101100.09
2022-10-23T11:30:27.387Z,101095.28
2022-10-23T11:33:25.682Z,101085.75
2022-10-23T11:36:10.553Z,101078.13
2022-10-23T11:38:38.143Z,101070.53
2022-10-23T11:41:26.448Z,101079.16
2022-10-23T11:43:55.493Z,101072.59
2022-10-23T11:46:21.744Z,101069.44
2022-10-23T11:48:48.156Z,101061.16
2022-10-23T11:51:36.510Z,101058.00
2022-10-23T11:54:11.656Z,101054.13
2022-10-23T11:56:38.827Z,101045.94
2022-10-23T11:59:39.496Z,101040.75
2022-10-23T12:02:24.283Z,101031.53
2022-10-23T12:04:51.784Z,101027.75
2022-10-23T12:07:28.912Z,101036.16
2022-10-23T12:09:59.379Z,101036.19
2022-10-23T12:12:29.951Z,101024.78
2022-10-23T12:15:11.355Z,101030.47
2022-10-23T12:17:38.162Z,101023.03
2022-10-23T12:20:10.829Z,101013.97
2022-10-23T12:23:18.403Z,101002.94
2022-10-23T12:26:02.861Z,101006.75
2022-10-23T12:28:32.060Z,101002.81
2022-10-23T12:31:27.828Z,101005.03
2022-10-23T12:34:10.097Z,100986.53
2022-10-23T12:36:43.500Z,100972.53
2022-10-23T12:39:26.571Z,100967.28
2022-10-23T12:41:52.968Z,100963.16
2022-10-23T12:44:19.385Z,100963.34
2022-10-23T12:46:50.079Z,100958.97
2022-10-23T12:49:21.350Z,100953.59
2022-10-23T12:51:58.591Z,100946.31
2022-10-23T12:54:25.148Z,100940.06
2022-10-23T12:56:51.525Z,100929.19
2022-10-23T12:59:20.516Z,100914.94
2022-10-23T13:01:50.466Z,100911.28
2022-10-23T13:04:29.690Z,100907.81
2022-10-23T13:06:57.212Z,100906.28
2022-10-23T13:09:37.857Z,100903.78
2022-10-23T13:12:05.278Z,100899.50
2022-10-23T13:14:43.687Z,100885.50
2022-10-23T13:17:11.353Z,100888.34
2022-10-23T13:19:37.839Z,100886.63
2022-10-23T13:22:05.475Z,100876.00
2022-10-23T13:24:32.051Z,100872.44
2022-10-23T13:26:58.582Z,100884.94
2022-10-23T13:29:33.859Z,100871.47
2022-10-23T13:32:13.165Z,100872.19
2022-10-23T13:34:41.667Z,100862.31
2022-10-23T13:37:25.974Z,100855.97
2022-10-23T13:40:19.937Z,100849.72
2022-10-23T13:42:51.793Z,100848.13
2022-10-23T13:45:25.314Z,100829.47
2022-10-23T13:47:51.952Z,100823.44
2022-10-23T13:50:18.714Z,100828.75
2022-10-23T13:52:45.174Z,100832.16
2022-10-23T13:55:23.316Z,100822.25
2022-10-23T13:57:49.836Z,100818.78
2022-10-23T14:00:16.615Z,100823.28
2022-10-23T14:02:43.118Z,100823.53
2022-10-23T14:05:11.691Z,100822.84
2022-10-23T14:07:40.230Z,100828.38
2022-10-23T14:10:06.848Z,100821.34
2022-10-23T14:12:47.209Z,100822.28
2022-10-23T14:15:15.039Z,100816.19
2022-10-23T14:17:41.436Z,100814.59
2022-10-23T14:20:08.597Z,100803.97
2022-10-23T14:22:36.537Z,100804.94
2022-10-23T14:25:02.981Z,100812.31
2022-10-23T14:27:29.694Z,100815.16
2022-10-23T14:29:56.234Z,100824.25
2022-10-23T14:32:22.655Z,100814.44
2022-10-23T14:34:52.977Z,100795.75
2022-10-23T14:37:20.086Z,100793.00
2022-10-23T14:39:50.020Z,100790.50
2022-10-23T14:42:17.810Z,100796.88
2022-10-23T14:44:44.296Z,100802.50
2022-10-23T14:47:10.718Z,100796.25
2022-10-23T14:49:37.263Z,100793.56
2022-10-23T14:52:03.705Z,100772.97
2022-10-23T14:54:30.181Z,100778.47
2022-10-23T14:56:58.163Z,100777.69
2022-10-23T14:59:24.551Z,100786.84
2022-10-23T15:04:24.795Z,100777.81
2022-10-23T15:06:51.198Z,100781.63
2022-10-23T15:09:17.681Z,100777.97
2022-10-23T15:11:44.081Z,100786.84
2022-10-23T15:14:10.536Z,100777.28
2022-10-23T15:16:36.938Z,100774.69
2022-10-23T15:19:03.650Z,100763.06
2022-10-23T15:21:30.029Z,100757.91
2022-10-23T15:23:56.423Z,100741.84
2022-10-23T15:26:22.797Z,100739.41
2022-10-23T15:28:53.305Z,100745.97
2022-10-23T15:31:28.764Z,100723.84
2022-10-23T15:33:58.211Z,100713.88
2022-10-23T15:36:24.779Z,100715.13
2022-10-23T15:38:51.226Z,100732.28
2022-10-23T15:41:21.077Z,100715.28
2022-10-23T15:43:47.526Z,100711.03
2022-10-23T15:46:14.007Z,100726.44
2022-10-23T15:48:40.388Z,100728.44
2022-10-23T15:51:06.782Z,100719.38
2022-10-23T15:53:33.168Z,100728.44
2022-10-23T15:55:59.575Z,100719.56
2022-10-23T15:58:26.130Z,100711.66
2022-10-23T16:00:52.555Z,100696.41
2022-10-23T16:03:18.940Z,100681.16
2022-10-23T16:05:45.332Z,100657.97
2022-10-23T16:08:11.734Z,100640.75
2022-10-23T16:10:41.539Z,100627.41
2022-10-23T16:13:08.161Z,100629.16
2022-10-23T16:15:37.609Z,100629.22
2022-10-23T16:18:04.191Z,100633.88
2022-10-23T16:20:30.636Z,100639.31
2022-10-23T16:22:57.012Z,100633.94
2022-10-23T16:25:23.438Z,100630.16
2022-10-23T16:27:49.849Z,100619.41
2022-10-23T16:30:16.242Z,100620.44
2022-10-23T16:32:42.712Z,100628.56
2022-10-23T16:35:12.317Z,100635.16
2022-10-23T16:37:39.584Z,100646.69
2022-10-23T16:40:06.569Z,100650.19
2022-10-23T16:42:32.996Z,100651.28
2022-10-23T16:44:59.456Z,100658.53
2022-10-23T16:47:25.936Z,100646.94
2022-10-23T16:49:52.419Z,100644.16
2022-10-23T16:52:18.970Z,100643.28
2022-10-23T16:54:45.459Z,100642.41
2022-10-23T16:57:11.924Z,100626.38
2022-10-23T16:59:38.341Z,100641.69
2022-10-23T17:02:05.186Z,100637.19
2022-10-23T17:04:31.688Z,100623.00
2022-10-23T17:06:58.089Z,100624.72
2022-10-23T17:09:24.702Z,100619.34
2022-10-23T17:11:51.246Z,100615.16
2022-10-23T17:14:18.439Z,100611.63
2022-10-23T17:16:49.593Z,100605.28
2022-10-23T17:19:43.422Z,100599.28
2022-10-23T17:22:05.924Z,100599.50
2022-10-23T17:24:32.282Z,100605.88
2022-10-23T17:26:58.668Z,100603.28
2022-10-23T17:29:25.095Z,100606.84
2022-10-23T17:31:51.546Z,100596.16
2022-10-23T17:34:23.566Z,100589.16
2022-10-23T17:36:54.324Z,100575.88
2022-10-23T17:39:22.880Z,100567.75
2022-10-23T17:41:50.389Z,100561.25
2022-10-23T17:44:16.900Z,100560.50
2022-10-23T17:46:43.510Z,100556.16
2022-10-23T17:49:10.084Z,100552.81
2022-10-23T17:51:36.681Z,100546.50
2022-10-23T17:54:05.390Z,100534.81
2022-10-23T17:56:32.310Z,100533.06
2022-10-23T17:59:04.563Z,100534.97
2022-10-23T18:01:31.078Z,100527.84
2022-10-23T18:04:00.104Z,100530.53
2022-10-23T18:06:29.804Z,100524.22
2022-10-23T18:08:56.336Z,100524.28
2022-10-23T18:11:27.599Z,100523.44
2022-10-23T18:13:54.360Z,100540.50
2022-10-23T18:16:20.918Z,100553.81
2022-10-23T18:18:47.494Z,100545.69
2022-10-23T18:21:14.137Z,100544.75
2022-10-23T18:23:40.775Z,100542.94
2022-10-23T18:26:19.112Z,100545.56
2022-10-23T18:28:46.190Z,100550.91
2022-10-23T18:31:12.724Z,100540.34
2022-10-23T18:33:39.222Z,100540.34
2022-10-23T18:36:26.182Z,100544.84
2022-10-23T18:38:52.773Z,100546.66
2022-10-23T18:41:19.303Z,100544.13
2022-10-23T18:43:45.939Z,100550.47
2022-10-23T18:46:13.032Z,100544.13
2022-10-23T18:48:39.570Z,100547.78
2022-10-23T18:51:15.603Z,100549.50
2022-10-23T18:53:42.499Z,100550.53
2022-10-23T18:56:08.953Z,100565.63
2022-10-23T18:58:36.414Z,100562.00
2022-10-23T19:01:04.199Z,100546.66
2022-10-23T19:03:30.678Z,100547.59
2022-10-23T19:05:57.404Z,100563.69
2022-10-23T19:08:23.870Z,100556.50
2022-10-23T19:10:50.339Z,100549.31
2022-10-23T19:13:16.732Z,100554.69
2022-10-23T19:15:43.191Z,100555.56
2022-10-23T19:18:09.580Z,100553.69
2022-10-23T19:20:35.997Z,100555.41
2022-10-23T19:23:02.400Z,100561.66
2022-10-23T19:25:30.669Z,100552.81
2022-10-23T19:27:57.353Z,100541.19
2022-10-23T19:30:24.263Z,100546.50
2022-10-23T19:32:50.727Z,100546.56
2022-10-23T19:35:18.178Z,100537.56
2022-10-23T19:37:44.989Z,100546.50
2022-10-23T19:40:12.241Z,100550.06
2022-10-23T19:42:39.379Z,100558.97
2022-10-23T19:45:06.858Z,100559.84
2022-10-23T19:47:34.704Z,100575.97
2022-10-23T19:50:01.102Z,100577.78
2022-10-23T19:52:27.546Z,100578.72
2022-10-23T19:54:53.930Z,100576.19
2022-10-23T19:57:22.587Z,100567.38
2022-10-23T19:59:50.117Z,100567.38
2022-10-23T20:02:17.306Z,100561.13
2022-10-23T20:04:43.793Z,100565.69
2022-10-23T20:07:10.199Z,100554.09
2022-10-23T20:09:36.578Z,100554.16
2022-10-23T20:12:03.118Z,100563.09
2022-10-23T20:14:29.592Z,100542.56
2022-10-23T20:16:56.263Z,100550.59
2022-10-23T20:19:24.327Z,100560.53
2022-10-23T20:21:50.744Z,100550.81
2022-10-23T20:24:18.061Z,100545.56
2022-10-23T20:26:52.149Z,100545.63
2022-10-23T20:29:18.683Z,100535.91
2022-10-23T20:31:45.174Z,100528.81
2022-10-23T20:34:11.708Z,100510.09
2022-10-23T20:36:42.386Z,100488.56
2022-10-23T20:39:20.476Z,100451.13
2022-10-23T20:41:46.875Z,100433.22
2022-10-23T20:44:14.801Z,100427.16
2022-10-23T20:46:41.495Z,100439.94
2022-10-23T20:49:07.974Z,100490.13
2022-10-23T20:51:34.363Z,100490.13
2022-10-23T20:54:00.772Z,100477.66
2022-10-23T20:56:29.100Z,100468.84
2022-10-23T20:58:56.642Z,100467.97
2022-10-23T21:01:23.142Z,100462.59
2022-10-23T21:03:53.615Z,100457.22
2022-10-23T21:06:20.015Z,100474.97
2022-10-23T21:08:46.437Z,100448.06
2022-10-23T21:11:13.935Z,100432.66
2022-10-23T21:13:41.071Z,100440.78
2022-10-23T21:16:15.134Z,100430.06
2022-10-23T21:18:45.955Z,100428.25
2022-10-23T21:21:17.171Z,100421.16
2022-10-23T21:23:43.576Z,100395.03
2022-10-23T21:26:09.978Z,100394.94
2022-10-23T21:28:36.377Z,100402.91
2022-10-23T21:31:06.822Z,100389.09
2022-10-23T21:33:33.490Z,100372.81
2022-10-23T21:36:12.815Z,100346.66
2022-10-23T21:38:40.182Z,100339.91
2022-10-23T21:41:07.439Z,100329.00
2022-10-23T21:43:33.859Z,100338.72
2022-10-23T21:46:07.155Z,100337.94
2022-10-23T21:48:33.555Z,100317.41
2022-10-23T21:51:00.041Z,100311.94
2022-10-23T21:53:26.678Z,100300.78
2022-10-23T21:55:53.097Z,100308.75
2022-10-23T21:58:19.485Z,100313.00
2022-10-23T22:00:45.880Z,100322.78
2022-10-23T22:03:12.258Z,100336.31
2022-10-23T22:05:38.634Z,100342.38
2022-10-23T22:08:05.252Z,100338.81
2022-10-23T22:10:31.724Z,100356.59
2022-10-23T22:12:58.090Z,100347.03
2022-10-23T22:15:24.475Z,100335.69
2022-10-23T22:17:50.850Z,100362.00
2022-10-23T22:20:17.265Z,100372.69
2022-10-23T22:22:43.639Z,100358.47
2022-10-23T22:25:10.040Z,100348.06
2022-10-23T22:27:39.211Z,100369.72
2022-10-23T22:30:05.987Z,100354.28
2022-10-23T22:32:32.363Z,100364.34
2022-10-23T22:34:58.771Z,100359.13
2022-10-23T22:37:25.148Z,100361.97
2022-10-23T22:39:52.103Z,100363.97
2022-10-23T22:42:19.293Z,100368.63
2022-10-23T22:44:45.697Z,100367.25
2022-10-23T22:47:12.077Z,100360.53
2022-10-23T22:49:38.488Z,100381.31
2022-10-23T22:52:04.911Z,100393.06
2022-10-23T22:54:31.437Z,100397.72
2022-10-23T22:56:57.991Z,100419.09
2022-10-23T22:59:24.356Z,100420.84
2022-10-23T23:01:50.818Z,100421.63
2022-10-23T23:04:36.676Z,100419.09
2022-10-23T23:07:03.667Z,100451.28
2022-10-23T23:09:30.056Z,100442.22
2022-10-23T23:11:57.255Z,100436.78
2022-10-23T23:14:24.517Z,100440.06
2022-10-23T23:16:52.194Z,100440.06
2022-10-23T23:19:18.611Z,100437.50
2022-10-23T23:21:44.999Z,100425.03
2022-10-23T23:24:11.683Z,100425.72
2022-10-23T23:26:38.055Z,100428.09
2022-10-23T23:29:04.429Z,100430.44
2022-10-23T23:31:30.793Z,100439.44
2022-10-23T23:33:57.238Z,100434.25
2022-10-23T23:36:24.781Z,100435.03
2022-10-23T23:38:51.451Z,100447.50
2022-10-23T23:41:18.382Z,100447.69
2022-10-23T23:43:44.858Z,100450.38
2022-10-23T23:46:11.366Z,100450.38
2022-10-23T23:48:38.013Z,100447.69
2022-10-23T23:51:04.909Z,100442.19
2022-10-23T23:53:31.279Z,100437.69
2022-10-23T23:55:57.693Z,100436.84
2022-10-23T23:58:24.194Z,100434.06
